createdAt,value
2024-02-12T00:00:49.687Z,970.907
2024-02-12T00:02:49.708Z,970.915
2024-02-12T00:04:49.869Z,970.957
2024-02-12T00:06:49.802Z,970.892
2024-02-12T00:08:49.972Z,970.940
2024-02-12T00:10:49.923Z,970.842
2024-02-12T00:12:49.817Z,970.971
2024-02-12T00:14:49.572Z,971.014
2024-02-12T00:16:49.409Z,970.972
2024-02-12T00:18:50.246Z,970.977
2024-02-12T00:20:49.996Z,971.047
2024-02-12T00:22:49.651Z,970.988
2024-02-12T00:24:49.436Z,971.069
2024-02-12T00:26:50.263Z,971.086
2024-02-12T00:28:50.110Z,971.099
2024-02-12T00:30:49.935Z,971.091
2024-02-12T00:32:49.794Z,971.146
2024-02-12T00:34:49.739Z,971.066
2024-02-12T00:36:49.526Z,971.092
2024-02-12T00:38:49.543Z,971.092
2024-02-12T00:40:49.394Z,971.109
2024-02-12T00:42:50.183Z,971.215
2024-02-12T00:44:49.983Z,971.216
2024-02-12T00:46:49.591Z,971.143
2024-02-12T00:48:49.582Z,971.251
2024-02-12T00:50:49.437Z,971.133
2024-02-12T00:52:50.143Z,971.239
2024-02-12T00:54:49.887Z,971.275
2024-02-12T00:56:49.666Z,971.246
2024-02-12T00:58:49.619Z,971.191
2024-02-12T01:00:49.537Z,971.236
2024-02-12T01:02:50.212Z,971.230
2024-02-12T01:04:50.001Z,971.283
2024-02-12T01:06:49.781Z,971.267
2024-02-12T01:08:50.342Z,971.281
2024-02-12T01:10:49.423Z,971.263
2024-02-12T01:12:50.199Z,971.279
2024-02-12T01:14:50.025Z,971.225
2024-02-12T01:16:49.848Z,971.254
2024-02-12T01:18:49.750Z,971.314
2024-02-12T01:20:49.694Z,971.314
2024-02-12T01:22:49.839Z,971.256
2024-02-12T01:24:49.776Z,971.337
2024-02-12T01:26:49.725Z,971.245
2024-02-12T01:28:49.681Z,971.338
2024-02-12T01:30:49.572Z,971.331
2024-02-12T01:32:50.483Z,971.300
2024-02-12T01:34:49.546Z,971.278
2024-02-12T01:36:49.656Z,971.244
2024-02-12T01:38:49.369Z,971.294
2024-02-12T01:40:50.218Z,971.289
2024-02-12T01:42:50.071Z,971.283
2024-02-12T01:44:49.931Z,971.332
2024-02-12T01:46:50.523Z,971.223
2024-02-12T01:48:49.759Z,971.256
2024-02-12T01:50:49.701Z,971.270
2024-02-12T01:52:49.580Z,971.324
2024-02-12T01:54:50.293Z,971.251
2024-02-12T01:56:50.093Z,971.305
2024-02-12T01:58:50.008Z,971.207
2024-02-12T02:00:49.953Z,971.286
2024-02-12T02:02:49.744Z,971.250
2024-02-12T02:04:49.693Z,971.250
2024-02-12T02:06:49.382Z,971.296
2024-02-12T02:08:50.081Z,971.286
2024-02-12T02:10:50.204Z,971.402
2024-02-12T02:12:50.278Z,971.319
2024-02-12T02:14:50.117Z,971.397
2024-02-12T02:16:49.971Z,971.331
2024-02-12T02:18:50.049Z,971.376
2024-02-12T02:20:49.871Z,971.314
2024-02-12T02:22:49.708Z,971.304
2024-02-12T02:24:49.530Z,971.326
2024-02-12T02:26:50.341Z,971.295
2024-02-12T02:28:49.369Z,971.356
2024-02-12T02:30:50.175Z,971.303
2024-02-12T02:32:50.069Z,971.309
2024-02-12T02:34:49.974Z,971.288
2024-02-12T02:36:49.787Z,971.326
2024-02-12T02:38:49.785Z,971.303
2024-02-12T02:40:49.633Z,971.223
2024-02-12T02:42:49.508Z,971.255
2024-02-12T02:44:50.278Z,971.225
2024-02-12T02:46:50.096Z,971.340
2024-02-12T02:48:49.932Z,971.255
2024-02-12T02:50:49.682Z,971.395
2024-02-12T02:52:49.531Z,971.275
2024-02-12T02:54:49.371Z,971.290
2024-02-12T02:56:50.177Z,971.356
2024-02-12T02:58:49.949Z,971.294
2024-02-12T03:00:49.829Z,971.416
2024-02-12T03:02:49.614Z,971.214
2024-02-12T03:04:49.396Z,971.268
2024-02-12T03:06:50.232Z,971.307
2024-02-12T03:08:50.009Z,971.318
2024-02-12T03:10:49.859Z,971.323
2024-02-12T03:12:49.741Z,971.365
2024-02-12T03:14:49.475Z,971.396
2024-02-12T03:16:50.289Z,971.372
2024-02-12T03:18:50.302Z,971.382
2024-02-12T03:20:50.112Z,971.449
2024-02-12T03:22:49.942Z,971.385
2024-02-12T03:24:49.796Z,971.413
2024-02-12T03:26:49.607Z,971.424
2024-02-12T03:28:49.365Z,971.365
2024-02-12T03:30:50.226Z,971.398
2024-02-12T03:32:50.147Z,971.425
2024-02-12T03:34:50.011Z,971.455
2024-02-12T03:36:49.837Z,971.412
2024-02-12T03:38:49.692Z,971.500
2024-02-12T03:40:49.476Z,971.404
2024-02-12T03:42:50.329Z,971.455
2024-02-12T03:44:50.085Z,971.501
2024-02-12T03:46:49.958Z,971.515
2024-02-12T03:48:49.815Z,971.542
2024-02-12T03:50:49.792Z,971.553
2024-02-12T03:52:49.570Z,971.638
2024-02-12T03:54:49.377Z,971.591
2024-02-12T03:56:50.177Z,971.619
2024-02-12T03:58:50.014Z,971.628
2024-02-12T04:00:49.849Z,971.653
2024-02-12T04:02:49.628Z,971.632
2024-02-12T04:04:49.455Z,971.669
2024-02-12T04:06:50.262Z,971.603
2024-02-12T04:08:50.038Z,971.689
2024-02-12T04:10:49.682Z,971.707
2024-02-12T04:12:49.526Z,971.718
2024-02-12T04:14:50.316Z,971.744
2024-02-12T04:16:50.137Z,971.733
2024-02-12T04:18:49.987Z,971.752
2024-02-12T04:20:49.738Z,971.787
2024-02-12T04:22:49.575Z,971.843
2024-02-12T04:24:49.446Z,971.801
2024-02-12T04:26:50.210Z,971.849
2024-02-12T04:28:50.259Z,971.876
2024-02-12T04:30:50.289Z,971.881
2024-02-12T04:32:50.164Z,971.950
2024-02-12T04:34:50.082Z,971.834
2024-02-12T04:36:49.886Z,971.902
2024-02-12T04:38:49.806Z,971.848
2024-02-12T04:40:49.836Z,971.933
2024-02-12T04:42:49.736Z,971.923
2024-02-12T04:44:49.546Z,971.989
2024-02-12T04:46:49.343Z,972.020
2024-02-12T04:48:50.191Z,972.020
2024-02-12T04:50:49.985Z,971.981
2024-02-12T04:52:49.768Z,972.089
2024-02-12T04:54:49.602Z,972.057
2024-02-12T04:56:49.430Z,971.981
2024-02-12T04:58:50.226Z,972.049
2024-02-12T05:00:50.076Z,971.983
2024-02-12T05:02:49.858Z,972.017
2024-02-12T05:04:49.672Z,972.086
2024-02-12T05:06:49.500Z,972.096
2024-02-12T05:08:50.349Z,972.076
2024-02-12T05:10:50.100Z,972.083
2024-02-12T05:12:49.964Z,972.081
2024-02-12T05:14:49.649Z,972.128
2024-02-12T05:16:49.391Z,972.194
2024-02-12T05:18:50.228Z,972.204
2024-02-12T05:20:49.984Z,972.230
2024-02-12T05:22:49.773Z,972.255
2024-02-12T05:24:49.503Z,972.229
2024-02-12T05:26:50.222Z,972.206
2024-02-12T05:28:50.044Z,972.206
2024-02-12T05:30:49.678Z,972.256
2024-02-12T05:32:49.519Z,972.302
2024-02-12T05:34:51.316Z,972.308
2024-02-12T05:36:50.210Z,972.269
2024-02-12T05:38:49.902Z,972.267
2024-02-12T05:40:49.739Z,972.336
2024-02-12T05:42:49.618Z,972.320
2024-02-12T05:44:49.355Z,972.375
2024-02-12T05:46:50.181Z,972.428
2024-02-12T05:48:50.010Z,972.331
2024-02-12T05:50:49.832Z,972.384
2024-02-12T05:52:49.643Z,972.449
2024-02-12T05:54:49.449Z,972.469
2024-02-12T05:56:50.273Z,972.470
2024-02-12T05:58:50.059Z,972.519
2024-02-12T06:00:49.676Z,972.475
2024-02-12T06:02:49.499Z,972.531
2024-02-12T06:04:50.509Z,972.552
2024-02-12T06:06:50.467Z,972.554
2024-02-12T06:08:50.166Z,972.570
2024-02-12T06:10:49.950Z,972.638
2024-02-12T06:12:49.811Z,972.645
2024-02-12T06:14:49.608Z,972.657
2024-02-12T06:16:49.408Z,972.721
2024-02-12T06:18:50.233Z,972.649
2024-02-12T06:20:50.067Z,972.650
2024-02-12T06:22:49.816Z,972.751
2024-02-12T06:24:49.496Z,972.747
2024-02-12T06:26:50.383Z,972.787
2024-02-12T06:28:50.045Z,972.785
2024-02-12T06:30:49.722Z,972.826
2024-02-12T06:32:49.684Z,972.890
2024-02-12T06:34:50.701Z,972.879
2024-02-12T06:36:49.553Z,972.902
2024-02-12T06:38:49.356Z,972.948
2024-02-12T06:40:50.206Z,973.029
2024-02-12T06:42:50.000Z,973.055
2024-02-12T06:44:49.783Z,973.100
2024-02-12T06:46:50.731Z,973.069
2024-02-12T06:48:50.092Z,973.075
2024-02-12T06:50:49.848Z,973.097
2024-02-12T06:52:49.713Z,973.034
2024-02-12T06:54:49.515Z,973.139
2024-02-12T06:56:50.353Z,973.139
2024-02-12T06:58:50.114Z,973.211
2024-02-12T07:00:50.029Z,973.259
2024-02-12T07:02:49.868Z,973.227
2024-02-12T07:04:49.816Z,973.182
2024-02-12T07:06:49.567Z,973.326
2024-02-12T07:08:50.372Z,973.320
2024-02-12T07:10:50.123Z,973.444
2024-02-12T07:12:49.948Z,973.382
2024-02-12T07:14:49.771Z,973.382
2024-02-12T07:16:49.558Z,973.447
2024-02-12T07:18:50.235Z,973.483
2024-02-12T07:20:49.969Z,973.447
2024-02-12T07:22:49.796Z,973.577
2024-02-12T07:24:49.685Z,973.558
2024-02-12T07:26:49.495Z,973.549
2024-02-12T07:28:50.323Z,973.549
2024-02-12T07:30:50.086Z,973.680
2024-02-12T07:32:49.974Z,973.633
2024-02-12T07:34:49.893Z,973.598
2024-02-12T07:36:49.764Z,973.684
2024-02-12T07:38:49.542Z,973.715
2024-02-12T07:40:49.360Z,973.614
2024-02-12T07:42:50.162Z,973.628
2024-02-12T07:44:49.987Z,973.689
2024-02-12T07:46:49.816Z,973.751
2024-02-12T07:48:49.744Z,973.722
2024-02-12T07:50:49.675Z,973.689
2024-02-12T07:52:49.442Z,973.835
2024-02-12T07:54:50.283Z,973.870
2024-02-12T07:56:50.054Z,973.870
2024-02-12T07:58:49.878Z,973.950
2024-02-12T08:00:49.656Z,973.974
2024-02-12T08:02:49.623Z,974.009
2024-02-12T08:04:49.460Z,974.128
2024-02-12T08:06:50.350Z,974.032
2024-02-12T08:08:50.163Z,974.065
2024-02-12T08:10:49.848Z,974.075
2024-02-12T08:12:49.717Z,974.032
2024-02-12T08:14:49.508Z,974.094
2024-02-12T08:16:50.305Z,974.160
2024-02-12T08:18:50.218Z,974.126
2024-02-12T08:20:50.260Z,974.195
2024-02-12T08:22:50.116Z,974.198
2024-02-12T08:24:50.011Z,974.223
2024-02-12T08:26:49.764Z,974.326
2024-02-12T08:28:49.601Z,974.259
2024-02-12T08:30:49.479Z,974.363
2024-02-12T08:32:49.584Z,974.293
2024-02-12T08:34:49.696Z,974.356
2024-02-12T08:36:49.690Z,974.391
2024-02-12T08:38:49.687Z,974.360
2024-02-12T08:40:49.462Z,974.454
2024-02-12T08:42:50.317Z,974.417
2024-02-12T08:44:50.087Z,974.500
2024-02-12T08:46:50.035Z,974.562
2024-02-12T08:48:49.786Z,974.562
2024-02-12T08:50:49.880Z,974.568
2024-02-12T08:52:49.790Z,974.568
2024-02-12T08:54:49.632Z,974.578
2024-02-12T08:56:49.515Z,974.602
2024-02-12T08:58:50.229Z,974.648
2024-02-12T09:00:50.064Z,974.701
2024-02-12T09:02:49.927Z,974.718
2024-02-12T09:04:49.677Z,974.746
2024-02-12T09:06:49.561Z,974.839
2024-02-12T09:08:50.377Z,974.847
2024-02-12T09:10:50.108Z,974.793
2024-02-12T09:12:53.241Z,974.854
2024-02-12T09:14:49.931Z,974.860
2024-02-12T09:16:49.785Z,974.948
2024-02-12T09:18:49.648Z,974.960
2024-02-12T09:20:49.420Z,974.985
2024-02-12T09:22:50.225Z,974.987
2024-02-12T09:24:49.997Z,975.096
2024-02-12T09:26:49.860Z,975.054
2024-02-12T09:28:49.636Z,975.127
2024-02-12T09:30:49.509Z,975.167
2024-02-12T09:32:50.532Z,975.253
2024-02-12T09:34:49.519Z,975.177
2024-02-12T09:36:50.363Z,975.141
2024-02-12T09:38:50.166Z,975.210
2024-02-12T09:40:50.148Z,975.267
2024-02-12T09:42:49.988Z,975.321
2024-02-12T09:44:49.763Z,975.306
2024-02-12T09:46:49.583Z,975.363
2024-02-12T09:48:49.695Z,975.280
2024-02-12T09:50:49.777Z,975.241
2024-02-12T09:52:49.522Z,975.223
2024-02-12T09:54:50.247Z,975.279
2024-02-12T09:56:50.027Z,975.388
2024-02-12T09:58:49.630Z,975.267
2024-02-12T10:00:50.274Z,975.292
2024-02-12T10:02:50.046Z,975.383
2024-02-12T10:04:49.938Z,975.377
2024-02-12T10:06:49.615Z,975.377
2024-02-12T10:08:49.710Z,975.411
2024-02-12T10:10:50.341Z,975.425
2024-02-12T10:12:50.190Z,975.535
2024-02-12T10:14:49.955Z,975.477
2024-02-12T10:16:49.785Z,975.495
2024-02-12T10:18:49.639Z,975.471
2024-02-12T10:20:49.420Z,975.604
2024-02-12T10:22:50.112Z,975.518
2024-02-12T10:24:49.866Z,975.657
2024-02-12T10:26:49.677Z,975.554
2024-02-12T10:28:49.577Z,975.619
2024-02-12T10:30:49.507Z,975.632
2024-02-12T10:32:50.461Z,975.557
2024-02-12T10:34:49.625Z,975.628
2024-02-12T10:36:49.557Z,975.585
2024-02-12T10:38:49.605Z,975.606
2024-02-12T10:40:49.356Z,975.599
2024-02-12T10:42:50.178Z,975.683
2024-02-12T10:44:50.008Z,975.674
2024-02-12T10:46:49.847Z,975.829
2024-02-12T10:48:49.771Z,975.626
2024-02-12T10:50:49.758Z,975.803
2024-02-12T10:52:49.569Z,975.736
2024-02-12T10:54:49.500Z,975.713
2024-02-12T10:56:50.353Z,975.767
2024-02-12T10:58:50.056Z,975.700
2024-02-12T11:00:55.520Z,975.781
2024-02-12T11:02:49.710Z,975.820
2024-02-12T11:04:49.525Z,975.794
2024-02-12T11:06:49.554Z,975.866
2024-02-12T11:08:49.400Z,975.912
2024-02-12T11:10:50.215Z,975.919
2024-02-12T11:12:49.982Z,976.068
2024-02-12T11:14:49.838Z,975.915
2024-02-12T11:16:49.615Z,975.861
2024-02-12T11:18:49.833Z,976.116
2024-02-12T11:20:49.793Z,976.063
2024-02-12T11:22:49.669Z,976.012
2024-02-12T11:24:50.276Z,976.104
2024-02-12T11:26:50.360Z,976.059
2024-02-12T11:28:50.322Z,976.078
2024-02-12T11:30:50.120Z,976.021
2024-02-12T11:32:50.110Z,976.021
2024-02-12T11:34:50.145Z,976.101
2024-02-12T11:36:49.958Z,976.234
2024-02-12T11:38:49.964Z,976.198
2024-02-12T11:40:49.826Z,976.264
2024-02-12T11:42:49.660Z,976.260
2024-02-12T11:44:49.544Z,976.297
2024-02-12T11:46:49.482Z,976.250
2024-02-12T11:48:50.341Z,976.294
2024-02-12T11:50:50.264Z,976.343
2024-02-12T11:52:49.983Z,976.412
2024-02-12T11:54:49.682Z,976.319
2024-02-12T11:56:49.601Z,976.293
2024-02-12T11:58:50.371Z,976.375
2024-02-12T12:00:50.172Z,976.410
2024-02-12T12:02:49.928Z,976.336
2024-02-12T12:04:49.794Z,976.339
2024-02-12T12:06:49.717Z,976.372
2024-02-12T12:08:49.604Z,976.429
2024-02-12T12:10:49.414Z,976.345
2024-02-12T12:12:58.812Z,976.343
2024-02-12T12:14:49.789Z,976.415
2024-02-12T12:17:27.787Z,976.458
2024-02-12T12:18:50.250Z,976.465
2024-02-12T12:20:50.149Z,976.469
2024-02-12T12:22:49.887Z,976.424
2024-02-12T12:24:49.666Z,976.488
2024-02-12T12:26:49.584Z,976.510
2024-02-12T12:28:50.342Z,976.503
2024-02-12T12:30:50.178Z,976.459
2024-02-12T12:32:50.105Z,976.429
2024-02-12T12:34:49.981Z,976.542
2024-02-12T12:36:49.822Z,976.595
2024-02-12T12:38:49.674Z,976.555
2024-02-12T12:40:49.431Z,976.535
2024-02-12T12:42:50.267Z,976.576
2024-02-12T12:44:50.100Z,976.616
2024-02-12T12:46:49.893Z,976.429
2024-02-12T12:48:49.896Z,976.573
2024-02-12T12:50:58.964Z,976.589
2024-02-12T12:52:50.331Z,976.519
2024-02-12T12:54:50.110Z,976.660
2024-02-12T12:56:50.165Z,976.568
2024-02-12T12:58:49.929Z,976.618
2024-02-12T13:00:49.855Z,976.590
2024-02-12T13:02:49.595Z,976.590
2024-02-12T13:04:49.435Z,976.691
2024-02-12T13:06:50.254Z,976.665
2024-02-12T13:08:50.141Z,976.633
2024-02-12T13:10:50.564Z,976.621
2024-02-12T13:12:49.862Z,976.708
2024-02-12T13:14:49.870Z,976.593
2024-02-12T13:16:49.728Z,976.646
2024-02-12T13:18:49.596Z,976.646
2024-02-12T13:20:50.412Z,976.656
2024-02-12T13:22:50.256Z,976.672
2024-02-12T13:24:50.086Z,976.707
2024-02-12T13:26:49.920Z,976.640
2024-02-12T13:28:49.672Z,976.680
2024-02-12T13:30:49.496Z,976.680
2024-02-12T13:32:50.405Z,976.787
2024-02-12T13:34:50.316Z,976.668
2024-02-12T13:36:50.127Z,976.618
2024-02-12T13:38:49.828Z,976.771
2024-02-12T13:40:49.966Z,976.727
2024-02-12T13:42:49.581Z,976.773
2024-02-12T13:44:49.607Z,976.794
2024-02-12T13:46:49.430Z,976.821
2024-02-12T13:48:50.330Z,976.818
2024-02-12T13:50:50.436Z,976.836
2024-02-12T13:52:50.429Z,976.922
2024-02-12T13:54:50.281Z,976.962
2024-02-12T13:56:50.105Z,976.993
2024-02-12T13:58:49.864Z,977.042
2024-02-12T14:01:03.878Z,977.125
2024-02-12T14:02:49.592Z,977.069
2024-02-12T14:04:50.406Z,977.065
2024-02-12T14:06:50.216Z,977.160
2024-02-12T14:08:50.018Z,977.160
2024-02-12T14:10:49.785Z,977.173
2024-02-12T14:12:49.628Z,977.155
2024-02-12T14:14:49.488Z,977.238
2024-02-12T14:16:49.471Z,977.217
2024-02-12T14:18:50.353Z,977.217
2024-02-12T14:20:50.123Z,977.234
2024-02-12T14:22:49.845Z,977.269
2024-02-12T14:24:49.512Z,977.265
2024-02-12T14:26:59.397Z,977.281
2024-02-12T14:28:49.864Z,977.306
2024-02-12T14:30:49.740Z,977.397
2024-02-12T14:32:49.631Z,977.352
2024-02-12T14:34:49.935Z,977.374
2024-02-12T14:36:49.780Z,977.410
2024-02-12T14:38:49.934Z,977.499
2024-02-12T14:40:49.820Z,977.499
2024-02-12T14:42:49.648Z,977.556
2024-02-12T14:44:49.470Z,977.556
2024-02-12T14:46:50.236Z,977.617
2024-02-12T14:48:50.135Z,977.634
2024-02-12T14:50:50.104Z,977.678
2024-02-12T14:52:50.129Z,977.682
2024-02-12T14:54:49.899Z,977.723
2024-02-12T14:56:49.772Z,977.758
2024-02-12T14:58:49.516Z,977.765
2024-02-12T15:00:49.441Z,977.749
2024-02-12T15:02:49.475Z,977.851
2024-02-12T15:04:49.441Z,977.920
2024-02-12T15:06:50.218Z,978.031
2024-02-12T15:08:50.018Z,978.012
2024-02-12T15:10:49.845Z,978.073
2024-02-12T15:12:49.660Z,978.043
2024-02-12T15:14:49.441Z,978.097
2024-02-12T15:16:50.260Z,978.074
2024-02-12T15:18:50.187Z,978.205
2024-02-12T15:20:49.937Z,978.121
2024-02-12T15:22:49.738Z,978.249
2024-02-12T15:24:49.531Z,978.206
2024-02-12T15:26:49.377Z,978.226
2024-02-12T15:28:50.154Z,978.280
2024-02-12T15:30:50.278Z,978.306
2024-02-12T15:32:50.485Z,978.267
2024-02-12T15:34:49.412Z,978.260
2024-02-12T15:36:50.219Z,978.260
2024-02-12T15:38:50.074Z,978.287
2024-02-12T15:40:49.875Z,978.332
2024-02-12T15:42:50.919Z,978.417
2024-02-12T15:44:50.309Z,978.426
2024-02-12T15:46:50.084Z,978.304
2024-02-12T15:48:49.993Z,978.378
2024-02-12T15:50:49.705Z,978.393
2024-02-12T15:52:49.539Z,978.355
2024-02-12T15:54:50.157Z,978.429
2024-02-12T15:56:50.010Z,978.401
2024-02-12T15:58:49.973Z,978.519
2024-02-12T16:00:49.856Z,978.487
2024-02-12T16:02:49.988Z,978.597
2024-02-12T16:04:49.791Z,978.615
2024-02-12T16:06:49.768Z,978.727
2024-02-12T16:08:49.721Z,978.684
2024-02-12T16:10:49.441Z,978.719
2024-02-12T16:12:50.270Z,978.697
2024-02-12T16:14:50.346Z,978.770
2024-02-12T16:16:50.114Z,978.744
2024-02-12T16:18:50.030Z,978.779
2024-02-12T16:20:49.831Z,978.796
2024-02-12T16:22:49.740Z,978.853
2024-02-12T16:24:49.562Z,978.795
2024-02-12T16:26:49.481Z,978.826
2024-02-12T16:28:50.178Z,978.989
2024-02-12T16:30:50.004Z,978.955
2024-02-12T16:32:49.950Z,979.056
2024-02-12T16:34:50.028Z,978.972
2024-02-12T16:36:49.849Z,979.049
2024-02-12T16:38:49.772Z,979.135
2024-02-12T16:40:49.473Z,979.128
2024-02-12T16:42:50.293Z,979.147
2024-02-12T16:44:50.482Z,979.179
2024-02-12T16:46:49.498Z,979.268
2024-02-12T16:48:50.437Z,979.344
2024-02-12T16:50:50.185Z,979.420
2024-02-12T16:52:49.963Z,979.361
2024-02-12T16:54:49.778Z,979.402
2024-02-12T16:56:49.670Z,979.364
2024-02-12T16:58:49.482Z,979.489
2024-02-12T17:00:50.261Z,979.401
2024-02-12T17:02:50.239Z,979.544
2024-02-12T17:04:50.246Z,979.544
2024-02-12T17:06:50.273Z,979.514
2024-02-12T17:08:50.184Z,979.603
2024-02-12T17:10:50.052Z,979.641
2024-02-12T17:12:49.705Z,979.610
2024-02-12T17:14:49.648Z,979.670
2024-02-12T17:16:49.538Z,979.706
2024-02-12T17:18:50.397Z,979.758
2024-02-12T17:20:49.437Z,979.820
2024-02-12T17:22:50.143Z,979.820
2024-02-12T17:24:51.561Z,979.834
2024-02-12T17:26:49.507Z,979.847
2024-02-12T17:28:49.467Z,979.899
2024-02-12T17:30:50.234Z,979.899
2024-02-12T17:32:50.154Z,979.979
2024-02-12T17:34:50.087Z,980.002
2024-02-12T17:36:49.893Z,980.058
2024-02-12T17:38:49.867Z,980.078
2024-02-12T17:40:49.892Z,980.111
2024-02-12T17:42:49.882Z,980.172
2024-02-12T17:44:49.902Z,980.129
2024-02-12T17:46:49.770Z,980.247
2024-02-12T17:48:49.624Z,980.214
2024-02-12T17:50:49.491Z,980.213
2024-02-12T17:52:49.409Z,980.267
2024-02-12T17:54:50.015Z,980.415
2024-02-12T17:56:52.279Z,980.444
2024-02-12T17:58:49.830Z,980.451
2024-02-12T18:00:49.678Z,980.456
2024-02-12T18:02:49.484Z,980.436
2024-02-12T18:04:50.278Z,980.565
2024-02-12T18:06:50.092Z,980.561
2024-02-12T18:08:49.960Z,980.603
2024-02-12T18:10:49.712Z,980.671
2024-02-12T18:12:49.540Z,980.671
2024-02-12T18:14:49.496Z,980.774
2024-02-12T18:16:49.380Z,980.823
2024-02-12T18:18:50.281Z,980.881
2024-02-12T18:20:50.288Z,980.851
2024-02-12T18:22:50.011Z,980.948
2024-02-12T18:24:49.860Z,980.928
2024-02-12T18:26:49.731Z,980.958
2024-02-12T18:28:49.456Z,980.963
2024-02-12T18:30:50.289Z,981.071
2024-02-12T18:32:50.174Z,981.090
2024-02-12T18:34:50.095Z,981.043
2024-02-12T18:36:49.991Z,981.025
2024-02-12T18:38:49.800Z,981.051
2024-02-12T18:40:49.558Z,981.101
2024-02-12T18:42:49.386Z,981.244
2024-02-12T18:44:50.332Z,981.279
2024-02-12T18:46:50.222Z,981.258
2024-02-12T18:48:53.195Z,981.269
2024-02-12T18:50:49.597Z,981.365
2024-02-12T18:52:49.436Z,981.267
2024-02-12T18:54:50.232Z,981.343
2024-02-12T18:56:49.956Z,981.460
2024-02-12T18:58:49.651Z,981.393
2024-02-12T19:00:50.334Z,981.507
2024-02-12T19:02:50.151Z,981.527
2024-02-12T19:04:49.996Z,981.568
2024-02-12T19:06:49.796Z,981.572
2024-02-12T19:08:49.567Z,981.657
2024-02-12T19:10:49.338Z,981.684
2024-02-12T19:12:50.146Z,981.674
2024-02-12T19:14:49.896Z,981.685
2024-02-12T19:16:49.661Z,981.678
2024-02-12T19:18:49.463Z,981.724
2024-02-12T19:20:50.358Z,981.743
2024-02-12T19:22:50.251Z,981.662
2024-02-12T19:24:50.053Z,981.707
2024-02-12T19:26:49.888Z,981.656
2024-02-12T19:28:49.724Z,981.759
2024-02-12T19:30:49.509Z,981.806
2024-02-12T19:32:50.203Z,981.920
2024-02-12T19:34:50.114Z,981.909
2024-02-12T19:36:49.721Z,981.979
2024-02-12T19:38:49.591Z,981.990
2024-02-12T19:40:49.357Z,981.981
2024-02-12T19:42:50.191Z,982.090
2024-02-12T19:44:50.047Z,982.141
2024-02-12T19:46:49.805Z,982.204
2024-02-12T19:48:49.819Z,982.225
2024-02-12T19:50:49.777Z,982.262
2024-02-12T19:52:49.677Z,982.254
2024-02-12T19:54:49.496Z,982.247
2024-02-12T19:56:50.335Z,982.367
2024-02-12T19:58:50.096Z,982.382
2024-02-12T20:00:50.039Z,982.415
2024-02-12T20:02:49.783Z,982.497
2024-02-12T20:04:49.777Z,982.488
2024-02-12T20:06:49.588Z,982.584
2024-02-12T20:08:50.210Z,982.538
2024-02-12T20:10:50.019Z,982.641
2024-02-12T20:12:49.778Z,982.579
2024-02-12T20:14:49.695Z,982.603
2024-02-12T20:16:49.657Z,982.621
2024-02-12T20:18:49.556Z,982.639
2024-02-12T20:20:49.506Z,982.726
2024-02-12T20:22:50.280Z,982.754
2024-02-12T20:24:50.072Z,982.663
2024-02-12T20:26:50.039Z,982.690
2024-02-12T20:28:49.688Z,982.649
2024-02-12T20:30:49.558Z,982.637
2024-02-12T20:32:49.582Z,982.725
2024-02-12T20:34:49.926Z,982.649
2024-02-12T20:36:49.774Z,982.757
2024-02-12T20:38:49.656Z,982.722
2024-02-12T20:40:49.412Z,982.787
2024-02-12T20:42:50.071Z,982.787
2024-02-12T20:44:49.913Z,982.800
2024-02-12T20:46:49.868Z,982.847
2024-02-12T20:48:49.758Z,982.867
2024-02-12T20:50:49.654Z,982.983
2024-02-12T20:52:49.483Z,982.852
2024-02-12T20:54:50.328Z,982.993
2024-02-12T20:56:50.155Z,982.918
2024-02-12T20:58:49.955Z,983.131
2024-02-12T21:00:49.844Z,983.127
2024-02-12T21:02:49.608Z,983.194
2024-02-12T21:04:49.374Z,983.239
2024-02-12T21:06:50.242Z,983.246
2024-02-12T21:08:50.177Z,983.307
2024-02-12T21:10:50.043Z,983.289
2024-02-12T21:12:49.858Z,983.396
2024-02-12T21:14:49.701Z,983.370
2024-02-12T21:16:49.497Z,983.410
2024-02-12T21:18:50.370Z,983.410
2024-02-12T21:20:50.170Z,983.509
2024-02-12T21:22:50.094Z,983.436
2024-02-12T21:24:49.944Z,983.543
2024-02-12T21:26:49.803Z,983.423
2024-02-12T21:28:49.559Z,983.506
2024-02-12T21:30:49.413Z,983.517
2024-02-12T21:32:50.284Z,983.517
2024-02-12T21:34:50.231Z,983.532
2024-02-12T21:36:50.025Z,983.564
2024-02-12T21:38:49.857Z,983.636
2024-02-12T21:40:49.657Z,983.593
2024-02-12T21:42:49.495Z,983.602
2024-02-12T21:44:50.397Z,983.683
2024-02-12T21:46:50.289Z,983.601
2024-02-12T21:48:50.250Z,983.755
2024-02-12T21:50:50.098Z,983.729
2024-02-12T21:52:49.881Z,983.746
2024-02-12T21:54:49.756Z,983.868
2024-02-12T21:56:49.624Z,983.900
2024-02-12T21:58:49.344Z,983.865
2024-02-12T22:00:50.231Z,983.929
2024-02-12T22:02:50.111Z,983.896
2024-02-12T22:04:50.009Z,984.028
2024-02-12T22:06:49.844Z,983.982
2024-02-12T22:08:49.838Z,983.964
2024-02-12T22:10:49.652Z,983.952
2024-02-12T22:12:49.480Z,983.912
2024-02-12T22:14:50.386Z,984.011
2024-02-12T22:16:50.296Z,984.053
2024-02-12T22:18:50.184Z,983.980
2024-02-12T22:20:50.205Z,984.032
2024-02-12T22:22:49.939Z,984.033
2024-02-12T22:24:49.768Z,984.099
2024-02-12T22:26:49.638Z,984.077
2024-02-12T22:28:49.611Z,984.089
2024-02-12T22:30:49.418Z,984.165
2024-02-12T22:32:50.304Z,984.153
2024-02-12T22:34:50.322Z,984.108
2024-02-12T22:36:50.070Z,984.202
2024-02-12T22:38:49.935Z,984.257
2024-02-12T22:40:49.716Z,984.257
2024-02-12T22:42:49.544Z,984.261
2024-02-12T22:44:50.498Z,984.223
2024-02-12T22:46:50.322Z,984.308
2024-02-12T22:48:50.235Z,984.320
2024-02-12T22:50:50.409Z,984.449
2024-02-12T22:52:50.154Z,984.435
2024-02-12T22:54:49.989Z,984.435
2024-02-12T22:56:49.793Z,984.407
2024-02-12T22:58:49.630Z,984.527
2024-02-12T23:00:49.530Z,984.504
2024-02-12T23:02:49.509Z,984.557
2024-02-12T23:04:50.287Z,984.639
2024-02-12T23:06:50.165Z,984.665
2024-02-12T23:08:49.943Z,984.665
2024-02-12T23:10:49.706Z,984.825
2024-02-12T23:12:49.597Z,984.825
2024-02-12T23:14:50.437Z,984.849
2024-02-12T23:16:50.144Z,984.858
2024-02-12T23:18:50.354Z,984.829
2024-02-12T23:20:50.249Z,984.904
2024-02-12T23:22:49.968Z,984.860
2024-02-12T23:24:49.620Z,984.862
2024-02-12T23:26:49.523Z,984.967
2024-02-12T23:28:50.311Z,984.893
2024-02-12T23:30:50.013Z,984.911
2024-02-12T23:32:50.130Z,985.039
2024-02-12T23:34:50.071Z,985.117
2024-02-12T23:36:49.901Z,985.140
2024-02-12T23:38:49.851Z,985.228
2024-02-12T23:40:49.711Z,985.157
2024-02-12T23:42:49.522Z,985.218
2024-02-12T23:44:49.495Z,985.348
2024-02-12T23:46:49.369Z,985.293
2024-02-12T23:48:50.110Z,985.350
2024-02-12T23:50:50.083Z,985.395
2024-02-12T23:52:49.789Z,985.272
2024-02-12T23:54:49.412Z,985.327
2024-02-12T23:56:50.305Z,985.293
2024-02-12T23:58:50.015Z,985.352
